Terminal Aerodrome Forecast
Issued by NWS

Home | Current Version | Previous Version | Graphics & Text | Print | Product List | Glossary On
Versions: 1 2 3 4 5 6 7 8 9 10 11 12 13 14 15 16 17 18 19 20 21 22 23 24 25 26 27 28 29 30 31 32 33 34
000
FTUS43 KLOT 151400 AAA
TAFDPA
TAF AMD
KDPA 151408Z 1514/1612 18010KT 1 1/2SM -DZ BR OVC003
     FM151600 17012KT 4SM BR OVC006
     FM151800 15012KT 6SM -SHRA BR OVC010
     FM152300 14013KT 4SM BR VCSH OVC010
     FM160200 13009KT 3SM -DZRA BR OVC007
     FM160700 VRB03KT 1SM -DZRA BR OVC003=

USA.gov is the U.S. government's official web portal to all federal, state and local government web resources and services.